createdAt,value
2022-10-26T00:03:24.747Z,101485.00
2022-10-26T00:05:58.065Z,101490.00
2022-10-26T00:08:28.957Z,101491.25
2022-10-26T00:11:00.349Z,101493.63
2022-10-26T00:13:30.454Z,101499.38
2022-10-26T00:18:37.542Z,101517.22
2022-10-26T01:04:40.899Z,101588.44
2022-10-26T01:07:12.282Z,101582.88
2022-10-26T01:09:42.593Z,101572.97
2022-10-26T01:12:12.562Z,101571.81
2022-10-26T01:14:43.587Z,101571.56
2022-10-26T01:17:47.773Z,101576.59
2022-10-26T01:20:24.015Z,101581.59
2022-10-26T01:23:00.497Z,101587.59
2022-10-26T01:25:48.936Z,101586.31
2022-10-26T01:28:56.273Z,101586.75
2022-10-26T01:31:39.776Z,101598.16
2022-10-26T01:34:45.023Z,101592.69
2022-10-26T01:37:24.245Z,101590.88
2022-10-26T01:40:02.868Z,101605.63
2022-10-26T01:42:38.028Z,101598.63
2022-10-26T01:45:12.903Z,101600.72
2022-10-26T01:47:42.710Z,101614.38
2022-10-26T01:50:14.081Z,101609.31
2022-10-26T01:52:45.524Z,101605.94
2022-10-26T01:55:39.951Z,101613.19
2022-10-26T01:59:03.550Z,101602.00
2022-10-26T02:01:37.296Z,101605.19
2022-10-26T02:06:58.888Z,101594.81
2022-10-26T02:09:47.375Z,101595.22
2022-10-26T02:12:52.117Z,101591.28
2022-10-26T02:15:35.258Z,101595.31
2022-10-26T02:18:20.573Z,101603.53
2022-10-26T02:20:57.144Z,101609.22
2022-10-26T02:23:31.123Z,101625.41
2022-10-26T02:26:03.738Z,101615.00
2022-10-26T02:28:41.917Z,101613.41
2022-10-26T02:31:15.950Z,101614.78
2022-10-26T02:33:53.580Z,101614.16
2022-10-26T02:36:30.935Z,101620.00
2022-10-26T02:39:03.328Z,101609.25
2022-10-26T02:41:36.765Z,101621.41
2022-10-26T02:44:20.016Z,101624.25
2022-10-26T02:46:50.838Z,101624.13
2022-10-26T02:49:22.482Z,101629.97
2022-10-26T02:51:59.391Z,101619.03
2022-10-26T02:54:49.190Z,101614.25
2022-10-26T02:57:32.452Z,101613.94
2022-10-26T03:00:05.442Z,101611.16
2022-10-26T03:02:35.543Z,101610.13
2022-10-26T03:05:15.087Z,101601.88
2022-10-26T03:07:45.206Z,101603.25
2022-10-26T03:13:01.945Z,101605.84
2022-10-26T03:15:31.946Z,101606.34
2022-10-26T03:18:01.948Z,101619.34
2022-10-26T03:20:33.195Z,101614.56
2022-10-26T03:23:03.210Z,101608.94
2022-10-26T03:25:33.334Z,101602.16
2022-10-26T03:28:05.499Z,101607.00
2022-10-26T03:30:35.746Z,101617.16
2022-10-26T03:33:07.922Z,101616.19
2022-10-26T03:35:38.828Z,101607.06
2022-10-26T03:38:08.839Z,101610.72
2022-10-26T03:40:38.962Z,101612.38
2022-10-26T03:43:08.889Z,101629.34
2022-10-26T03:45:40.405Z,101619.69
2022-10-26T03:48:10.529Z,101628.63
2022-10-26T03:50:40.787Z,101634.28
2022-10-26T03:53:12.219Z,101631.94
2022-10-26T03:55:45.958Z,101623.94
2022-10-26T03:58:17.903Z,101630.72
2022-10-26T04:00:49.923Z,101620.25
2022-10-26T04:03:20.991Z,101619.72
2022-10-26T04:05:51.574Z,101626.03
2022-10-26T04:08:21.747Z,101626.16
2022-10-26T04:10:51.790Z,101625.50
2022-10-26T04:13:23.843Z,101625.78
2022-10-26T04:15:54.161Z,101630.28
2022-10-26T04:18:24.642Z,101619.94
2022-10-26T04:20:53.959Z,101616.47
2022-10-26T04:26:02.271Z,101604.59
2022-10-26T04:28:32.564Z,101619.72
2022-10-26T04:31:02.633Z,101621.69
2022-10-26T04:33:33.415Z,101611.03
2022-10-26T04:36:05.704Z,101619.72
2022-10-26T04:38:35.794Z,101620.41
2022-10-26T04:41:05.959Z,101628.38
2022-10-26T04:43:36.545Z,101622.75
2022-10-26T04:46:06.647Z,101626.41
2022-10-26T04:48:36.719Z,101638.84
2022-10-26T04:51:06.671Z,101645.97
2022-10-26T04:53:37.136Z,101638.00
2022-10-26T04:56:07.924Z,101649.66
2022-10-26T04:58:38.231Z,101646.84
2022-10-26T05:01:08.646Z,101639.69
2022-10-26T05:03:39.780Z,101636.19
2022-10-26T05:06:10.333Z,101634.53
2022-10-26T05:08:40.430Z,101628.38
2022-10-26T05:11:10.477Z,101628.38
2022-10-26T05:13:40.544Z,101638.34
2022-10-26T05:16:11.169Z,101641.00
2022-10-26T05:18:41.425Z,101635.69
2022-10-26T05:21:12.580Z,101637.31
2022-10-26T05:23:42.644Z,101641.66
2022-10-26T05:26:12.652Z,101641.66
2022-10-26T05:28:42.522Z,101626.69
2022-10-26T05:31:12.497Z,101628.69
2022-10-26T05:33:43.638Z,101634.00
2022-10-26T05:36:14.112Z,101634.16
2022-10-26T05:38:45.206Z,101641.28
2022-10-26T05:41:16.014Z,101635.97
2022-10-26T05:43:48.957Z,101645.59
2022-10-26T05:46:19.017Z,101635.81
2022-10-26T05:48:49.215Z,101637.63
2022-10-26T05:51:19.311Z,101636.81
2022-10-26T05:53:49.868Z,101640.63
2022-10-26T05:56:35.667Z,101637.97
2022-10-26T05:59:12.821Z,101632.63
2022-10-26T06:02:25.211Z,101625.34
2022-10-26T06:04:59.243Z,101632.16
2022-10-26T06:07:29.640Z,101636.50
2022-10-26T06:10:00.035Z,101636.34
2022-10-26T06:12:30.617Z,101645.44
2022-10-26T06:15:01.012Z,101641.28
2022-10-26T06:17:55.229Z,101638.78
2022-10-26T06:20:41.234Z,101662.03
2022-10-26T06:23:23.751Z,101656.72
2022-10-26T06:26:02.581Z,101651.53
2022-10-26T06:28:50.892Z,101657.69
2022-10-26T06:31:21.784Z,101650.53
2022-10-26T06:33:52.746Z,101646.91
2022-10-26T06:36:32.545Z,101658.06
2022-10-26T06:39:08.594Z,101662.56
2022-10-26T06:41:40.016Z,101655.25
2022-10-26T06:44:21.472Z,101659.75
2022-10-26T06:47:33.915Z,101666.03
2022-10-26T06:50:12.733Z,101672.34
2022-10-26T06:53:27.116Z,101672.66
2022-10-26T06:56:00.323Z,101679.25
2022-10-26T06:58:36.784Z,101677.44
2022-10-26T07:01:07.342Z,101674.09
2022-10-26T07:03:37.351Z,101675.06
2022-10-26T07:06:09.358Z,101676.91
2022-10-26T07:08:39.598Z,101673.41
2022-10-26T07:11:10.692Z,101684.88
2022-10-26T07:13:40.738Z,101691.69
2022-10-26T07:16:11.632Z,101686.38
2022-10-26T07:18:41.838Z,101677.44
2022-10-26T07:21:12.952Z,101690.59
2022-10-26T07:23:43.117Z,101689.72
2022-10-26T07:26:13.196Z,101687.22
2022-10-26T07:28:43.430Z,101693.38
2022-10-26T07:31:13.494Z,101697.03
2022-10-26T07:33:44.161Z,101694.66
2022-10-26T07:36:16.122Z,101707.25
2022-10-26T07:38:46.536Z,101712.88
2022-10-26T07:41:34.415Z,101711.38
2022-10-26T07:44:06.926Z,101708.84
2022-10-26T07:46:37.972Z,101712.53
2022-10-26T07:49:07.989Z,101713.50
2022-10-26T07:51:38.033Z,101710.84
2022-10-26T07:54:08.070Z,101709.00
2022-10-26T07:56:38.155Z,101708.03
2022-10-26T07:59:08.597Z,101712.53
2022-10-26T08:01:39.060Z,101716.16
2022-10-26T08:04:09.296Z,101720.63
2022-10-26T08:06:39.465Z,101713.63
2022-10-26T08:09:09.630Z,101717.44
2022-10-26T08:11:39.633Z,101712.13
2022-10-26T08:14:10.539Z,101711.94
2022-10-26T08:16:43.546Z,101709.28
2022-10-26T08:19:14.225Z,101724.25
2022-10-26T08:21:44.437Z,101723.44
2022-10-26T08:24:14.615Z,101728.75
2022-10-26T08:26:44.965Z,101720.78
2022-10-26T08:29:15.390Z,101727.75
2022-10-26T08:31:46.501Z,101722.56
2022-10-26T08:34:17.356Z,101727.06
2022-10-26T08:36:47.770Z,101725.41
2022-10-26T08:39:18.160Z,101733.38
2022-10-26T08:41:54.774Z,101728.22
2022-10-26T08:44:35.240Z,101728.22
2022-10-26T08:47:44.521Z,101730.00
2022-10-26T08:50:33.819Z,101739.13
2022-10-26T08:53:12.143Z,101726.81
2022-10-26T08:56:06.684Z,101735.78
2022-10-26T08:58:44.616Z,101742.06
2022-10-26T09:01:15.477Z,101744.06
2022-10-26T09:03:45.979Z,101735.53
2022-10-26T09:06:31.847Z,101742.69
2022-10-26T09:09:23.762Z,101740.16
2022-10-26T09:12:09.584Z,101739.50
2022-10-26T09:15:00.781Z,101744.13
2022-10-26T09:17:35.454Z,101747.06
2022-10-26T09:20:40.070Z,101756.28
2022-10-26T09:23:33.448Z,101754.91
2022-10-26T09:26:06.337Z,101753.41
2022-10-26T09:28:39.523Z,101758.16
2022-10-26T09:31:16.976Z,101759.44
2022-10-26T09:33:47.090Z,101764.19
2022-10-26T09:36:24.934Z,101768.97
2022-10-26T09:39:28.205Z,101776.22
2022-10-26T09:42:32.952Z,101781.81
2022-10-26T09:45:28.044Z,101783.25
2022-10-26T09:48:37.437Z,101777.25
2022-10-26T09:51:09.355Z,101787.19
2022-10-26T09:53:39.693Z,101799.75
2022-10-26T09:56:15.229Z,101798.06
2022-10-26T09:59:02.577Z,101798.22
2022-10-26T10:01:38.142Z,101805.63
2022-10-26T10:04:13.956Z,101800.44
2022-10-26T10:06:45.064Z,101797.94
2022-10-26T10:09:21.362Z,101811.50
2022-10-26T10:12:00.693Z,101814.31
2022-10-26T10:14:37.424Z,101816.25
2022-10-26T10:17:22.763Z,101830.63
2022-10-26T10:19:55.569Z,101824.78
2022-10-26T10:22:28.936Z,101833.72
2022-10-26T10:25:02.926Z,101843.03
2022-10-26T10:27:34.786Z,101839.97
2022-10-26T10:30:25.064Z,101841.38
2022-10-26T10:33:15.850Z,101846.38
2022-10-26T10:35:55.235Z,101845.81
2022-10-26T10:38:25.350Z,101847.09
2022-10-26T10:41:05.961Z,101858.09
2022-10-26T10:43:37.356Z,101862.00
2022-10-26T10:46:07.438Z,101867.84
2022-10-26T10:48:39.494Z,101881.41
2022-10-26T10:51:14.286Z,101868.28
2022-10-26T10:53:50.438Z,101872.16
2022-10-26T10:56:37.412Z,101878.72
2022-10-26T10:59:29.735Z,101889.88
2022-10-26T11:02:35.861Z,101895.69
2022-10-26T11:05:08.502Z,101896.25
2022-10-26T11:07:55.691Z,101901.94
2022-10-26T11:10:33.080Z,101916.44
2022-10-26T11:13:13.407Z,101907.91
2022-10-26T11:15:46.869Z,101909.13
2022-10-26T11:18:21.033Z,101915.44
2022-10-26T11:21:03.609Z,101904.09
2022-10-26T11:23:48.449Z,101913.16
2022-10-26T11:26:45.157Z,101922.94
2022-10-26T11:29:48.554Z,101927.66
2022-10-26T11:32:27.489Z,101941.84
2022-10-26T11:35:08.791Z,101930.44
2022-10-26T11:37:54.975Z,101941.28
2022-10-26T11:40:46.130Z,101940.56
2022-10-26T11:43:19.072Z,101940.72
2022-10-26T11:46:07.609Z,101946.25
2022-10-26T11:48:45.936Z,101946.38
2022-10-26T11:51:43.352Z,101948.31
2022-10-26T11:54:31.441Z,101952.09
2022-10-26T11:57:03.493Z,101959.16
2022-10-26T11:59:39.477Z,101962.34
2022-10-26T12:02:17.741Z,101974.88
2022-10-26T12:04:56.666Z,101962.16
2022-10-26T12:07:31.902Z,101967.25
2022-10-26T12:10:05.917Z,101977.94
2022-10-26T12:13:06.914Z,101969.28
2022-10-26T12:16:04.683Z,101973.03
2022-10-26T12:18:55.632Z,101974.97
2022-10-26T12:21:32.802Z,101981.22
2022-10-26T12:24:04.681Z,101984.72
2022-10-26T12:26:37.550Z,101986.78
2022-10-26T12:29:08.565Z,101992.91
2022-10-26T12:31:39.855Z,101994.72
2022-10-26T12:34:24.325Z,101999.16
2022-10-26T12:36:57.519Z,102000.97
2022-10-26T12:39:39.585Z,102009.88
2022-10-26T12:42:30.722Z,102013.50
2022-10-26T12:45:02.153Z,102025.03
2022-10-26T12:47:32.431Z,102024.91
2022-10-26T12:50:02.523Z,102025.75
2022-10-26T12:52:56.501Z,102017.69
2022-10-26T12:55:48.031Z,102027.31
2022-10-26T12:58:42.412Z,102031.78
2022-10-26T13:01:31.026Z,102045.25
2022-10-26T13:04:13.689Z,102039.38
2022-10-26T13:07:08.750Z,102039.72
2022-10-26T13:09:39.958Z,102055.16
2022-10-26T13:12:10.647Z,102058.91
2022-10-26T13:15:00.722Z,102053.00
2022-10-26T13:20:20.498Z,102061.41
2022-10-26T13:22:51.493Z,102065.41
2022-10-26T13:25:28.875Z,102065.75
2022-10-26T13:28:11.466Z,102072.38
2022-10-26T13:30:47.234Z,102083.09
2022-10-26T13:33:23.455Z,102082.25
2022-10-26T13:35:57.883Z,102081.41
2022-10-26T13:38:36.282Z,102084.06
2022-10-26T13:41:16.079Z,102080.56
2022-10-26T13:43:47.991Z,102078.91
2022-10-26T13:46:29.622Z,102090.31
2022-10-26T13:51:50.380Z,102095.59
2022-10-26T13:54:34.125Z,102097.28
2022-10-26T13:57:21.452Z,102101.72
2022-10-26T13:59:55.629Z,102110.88
2022-10-26T14:02:30.224Z,102113.50
2022-10-26T14:05:07.518Z,102110.25
2022-10-26T14:07:58.578Z,102122.78
2022-10-26T14:10:47.591Z,102123.72
2022-10-26T14:13:23.392Z,102128.53
2022-10-26T14:15:53.256Z,102129.50
2022-10-26T14:18:30.394Z,102139.34
2022-10-26T14:21:06.971Z,102142.13
2022-10-26T14:23:37.383Z,102151.97
2022-10-26T14:26:08.655Z,102154.13
2022-10-26T14:28:49.061Z,102148.13
2022-10-26T14:31:35.415Z,102148.56
2022-10-26T14:34:08.458Z,102160.47
2022-10-26T14:36:49.029Z,102153.97
2022-10-26T14:39:25.496Z,102164.97
2022-10-26T14:41:58.537Z,102169.53
2022-10-26T14:44:29.607Z,102168.94
2022-10-26T14:47:00.203Z,102170.75
2022-10-26T14:49:31.297Z,102189.13
2022-10-26T14:52:09.309Z,102185.63
2022-10-26T14:54:41.377Z,102176.88
2022-10-26T14:57:36.674Z,102191.63
2022-10-26T15:00:17.585Z,102184.69
2022-10-26T15:05:34.725Z,102179.16
2022-10-26T15:08:06.136Z,102191.41
2022-10-26T15:10:42.377Z,102196.47
2022-10-26T15:13:22.816Z,102188.53
2022-10-26T15:15:58.342Z,102197.31
2022-10-26T15:18:36.822Z,102196.47
2022-10-26T15:21:31.461Z,102190.25
2022-10-26T15:24:03.202Z,102198.16
2022-10-26T15:26:34.158Z,102196.47
2022-10-26T15:29:04.627Z,102214.75
2022-10-26T15:31:36.478Z,102212.94
2022-10-26T15:34:07.726Z,102214.88
2022-10-26T15:36:45.965Z,102225.44
2022-10-26T15:39:16.371Z,102225.88
2022-10-26T15:41:50.851Z,102227.78
2022-10-26T15:44:24.004Z,102223.59
2022-10-26T15:46:56.216Z,102229.09
2022-10-26T15:49:26.664Z,102237.34
2022-10-26T15:51:57.302Z,102231.44
2022-10-26T15:54:27.558Z,102232.44
2022-10-26T15:56:58.351Z,102236.13
2022-10-26T15:59:27.762Z,102236.97
2022-10-26T16:01:58.584Z,102234.44
2022-10-26T16:04:29.200Z,102248.59
2022-10-26T16:07:02.791Z,102242.50
2022-10-26T16:09:33.380Z,102245.03
2022-10-26T16:12:04.440Z,102242.50
2022-10-26T16:14:53.324Z,102248.59
2022-10-26T16:17:27.546Z,102248.72
2022-10-26T16:19:58.250Z,102252.44
2022-10-26T16:22:29.053Z,102260.47
2022-10-26T16:24:59.701Z,102258.75
2022-10-26T16:27:29.668Z,102259.00
2022-10-26T16:29:59.576Z,102265.34
2022-10-26T16:32:29.906Z,102259.44
2022-10-26T16:35:01.058Z,102260.53
2022-10-26T16:37:32.782Z,102257.97
2022-10-26T16:40:03.435Z,102263.44
2022-10-26T16:42:34.626Z,102270.44
2022-10-26T16:45:06.547Z,102261.84
2022-10-26T16:47:38.253Z,102270.97
2022-10-26T16:50:10.558Z,102267.38
2022-10-26T16:52:41.377Z,102264.84
2022-10-26T16:55:12.057Z,102271.06
2022-10-26T16:57:42.297Z,102272.75
2022-10-26T17:00:13.794Z,102282.34
2022-10-26T17:02:44.874Z,102279.59
2022-10-26T17:05:14.903Z,102292.09
2022-10-26T17:07:45.444Z,102277.06
2022-10-26T17:10:15.666Z,102292.09
2022-10-26T17:12:47.150Z,102296.53
2022-10-26T17:15:19.878Z,102294.81
2022-10-26T17:17:50.606Z,102302.75
2022-10-26T17:20:21.734Z,102314.19
2022-10-26T17:22:53.145Z,102303.00
2022-10-26T17:25:23.338Z,102310.78
2022-10-26T17:27:53.791Z,102311.00
2022-10-26T17:30:24.834Z,102311.00
2022-10-26T17:32:54.130Z,102318.06
2022-10-26T17:35:24.096Z,102319.03
2022-10-26T17:37:54.451Z,102332.25
2022-10-26T17:40:26.008Z,102324.31
2022-10-26T17:42:57.001Z,102328.63
2022-10-26T17:45:27.985Z,102325.16
2022-10-26T17:47:57.945Z,102330.53
2022-10-26T17:50:28.167Z,102324.44
2022-10-26T17:52:59.234Z,102340.25
2022-10-26T17:55:30.208Z,102335.09
2022-10-26T17:58:00.417Z,102343.00
2022-10-26T18:00:31.363Z,102361.50
2022-10-26T18:03:03.294Z,102352.72
2022-10-26T18:05:33.603Z,102354.50
2022-10-26T18:08:04.367Z,102357.03
2022-10-26T18:10:37.807Z,102359.78
2022-10-26T18:13:09.945Z,102365.69
2022-10-26T18:15:40.534Z,102361.09
2022-10-26T18:18:12.882Z,102362.75
2022-10-26T18:20:44.689Z,102353.88
2022-10-26T18:23:14.760Z,102359.16
2022-10-26T18:25:44.912Z,102361.56
2022-10-26T18:28:15.168Z,102359.78
2022-10-26T18:30:46.834Z,102365.09
2022-10-26T18:33:18.189Z,102368.34
2022-10-26T18:35:49.122Z,102362.97
2022-10-26T18:38:19.291Z,102360.31
2022-10-26T18:40:55.031Z,102365.50
2022-10-26T18:43:26.450Z,102360.22
2022-10-26T18:46:09.509Z,102367.38
2022-10-26T18:48:40.091Z,102363.81
2022-10-26T18:51:17.374Z,102369.19
2022-10-26T18:53:49.780Z,102374.38
2022-10-26T18:56:25.255Z,102373.44
2022-10-26T18:59:00.105Z,102369.09
2022-10-26T19:01:35.578Z,102379.66
2022-10-26T19:04:10.206Z,102370.78
2022-10-26T19:06:50.149Z,102369.09
2022-10-26T19:09:21.141Z,102370.03
2022-10-26T19:11:51.824Z,102372.03
2022-10-26T19:14:23.152Z,102363.16
2022-10-26T19:16:55.615Z,102370.38
2022-10-26T19:19:28.225Z,102375.41
2022-10-26T19:22:01.621Z,102358.72
2022-10-26T19:24:32.867Z,102363.06
2022-10-26T19:27:03.813Z,102356.09
2022-10-26T19:29:34.188Z,102367.63
2022-10-26T19:32:05.461Z,102373.00
2022-10-26T19:34:35.792Z,102372.03
2022-10-26T19:37:07.776Z,102370.56
2022-10-26T19:39:38.038Z,102375.00
2022-10-26T19:42:09.436Z,102375.22
2022-10-26T19:44:40.615Z,102375.00
2022-10-26T19:47:11.133Z,102379.31
2022-10-26T19:49:42.381Z,102373.94
2022-10-26T19:52:13.720Z,102378.38
2022-10-26T19:54:43.869Z,102387.25
2022-10-26T19:57:13.979Z,102382.94
2022-10-26T19:59:44.976Z,102399.72
2022-10-26T20:02:16.558Z,102383.88
2022-10-26T20:04:47.927Z,102383.03
2022-10-26T20:07:20.101Z,102387.25
2022-10-26T20:09:51.147Z,102390.75
2022-10-26T20:12:23.358Z,102390.75
2022-10-26T20:14:55.372Z,102395.16
2022-10-26T20:17:29.199Z,102392.53
2022-10-26T20:20:00.761Z,102403.97
2022-10-26T20:22:31.123Z,102398.69
2022-10-26T20:25:01.798Z,102396.97
2022-10-26T20:27:32.958Z,102405.84
2022-10-26T20:30:04.964Z,102407.75
2022-10-26T20:32:35.916Z,102403.31
2022-10-26T20:35:07.673Z,102405.84
2022-10-26T20:37:38.590Z,102425.91
2022-10-26T20:40:10.354Z,102415.47
2022-10-26T20:42:41.656Z,102417.25
2022-10-26T20:45:31.983Z,102417.25
2022-10-26T20:48:03.830Z,102418.19
2022-10-26T20:50:35.286Z,102416.63
2022-10-26T20:53:36.495Z,102422.75
2022-10-26T20:56:16.295Z,102420.31
2022-10-26T20:58:47.148Z,102427.50
2022-10-26T21:01:28.599Z,102431.06
2022-10-26T21:04:01.685Z,102439.97
2022-10-26T21:06:41.828Z,102437.41
2022-10-26T21:09:12.747Z,102444.59
2022-10-26T21:11:44.895Z,102449.06
2022-10-26T21:14:16.449Z,102441.97
2022-10-26T21:16:46.572Z,102443.00
2022-10-26T21:19:17.794Z,102443.09
2022-10-26T21:21:49.793Z,102450.19
2022-10-26T21:24:21.253Z,102448.28
2022-10-26T21:26:52.562Z,102445.75
2022-10-26T21:29:24.007Z,102443.22
2022-10-26T21:31:54.172Z,102447.66
2022-10-26T21:34:25.630Z,102460.00
2022-10-26T21:36:56.849Z,102452.28
2022-10-26T21:39:27.815Z,102462.84
2022-10-26T21:41:58.141Z,102464.75
2022-10-26T21:44:43.796Z,102455.91
2022-10-26T21:47:15.295Z,102461.19
2022-10-26T21:49:45.920Z,102462.31
2022-10-26T21:52:16.164Z,102458.00
2022-10-26T21:54:46.153Z,102462.31
2022-10-26T21:57:17.084Z,102461.38
2022-10-26T21:59:47.463Z,102464.84
2022-10-26T22:02:17.563Z,102469.28
2022-10-26T22:04:48.603Z,102480.78
2022-10-26T22:07:20.981Z,102476.47
2022-10-26T22:10:09.695Z,102493.34
2022-10-26T22:12:41.702Z,102480.13
2022-10-26T22:15:12.305Z,102481.00
2022-10-26T22:17:42.964Z,102487.41
2022-10-26T22:20:14.706Z,102478.66
2022-10-26T22:22:48.248Z,102484.78
2022-10-26T22:25:18.714Z,102485.31
2022-10-26T22:27:50.047Z,102487.13
2022-10-26T22:30:20.276Z,102492.50
2022-10-26T22:32:51.444Z,102481.00
2022-10-26T22:35:29.496Z,102484.59
2022-10-26T22:38:00.074Z,102482.03
2022-10-26T22:40:29.428Z,102483.00
2022-10-26T22:42:59.588Z,102480.47
2022-10-26T22:45:30.654Z,102488.16
2022-10-26T22:48:00.610Z,102487.31
2022-10-26T22:50:31.487Z,102498.72
2022-10-26T22:53:02.447Z,102501.47
2022-10-26T22:55:34.007Z,102510.34
2022-10-26T22:58:04.804Z,102504.22
2022-10-26T23:00:36.223Z,102512.22
2022-10-26T23:03:08.283Z,102518.34
2022-10-26T23:05:38.608Z,102520.06
2022-10-26T23:08:08.584Z,102519.97
2022-10-26T23:10:40.044Z,102523.44
2022-10-26T23:13:10.643Z,102525.09
2022-10-26T23:15:41.555Z,102526.06
2022-10-26T23:18:11.501Z,102534.00
2022-10-26T23:20:41.517Z,102539.38
2022-10-26T23:23:12.485Z,102540.31
2022-10-26T23:25:43.070Z,102542.84
2022-10-26T23:28:14.869Z,102553.41
2022-10-26T23:30:49.638Z,102548.22
2022-10-26T23:33:20.661Z,102551.63
2022-10-26T23:35:53.800Z,102551.63
2022-10-26T23:38:24.122Z,102561.88
2022-10-26T23:40:56.099Z,102569.69
2022-10-26T23:43:30.318Z,102564.31
2022-10-26T23:46:01.947Z,102573.94
2022-10-26T23:48:33.263Z,102584.28
2022-10-26T23:51:04.545Z,102586.06
2022-10-26T23:53:35.630Z,102586.72
2022-10-26T23:56:06.914Z,102587.47
2022-10-26T23:58:37.903Z,102572.47
